Simpson, IL (62985)

2:47 AM CDT on August 04, 2015 (GMT -0500)
RAWS | | Change Station
CLOSE
Current Station
Personal Weather Station
Location: Simpson, IL
Elevation: 540 ft
Nearby Weather Stations

Elev 540 ft 37.44 °N, 88.67 °W | Updated 39 minutes ago

Clear
Clear
75.0 °F
Feels Like 72 °F
N
2.0
Wind Variable Wind from ESE
Gusts 3.0 mph

Today
High -- | Low -- °F
--% Chance of Precip.
Yesterday
High -- | Low -- °F
Precip. -- in
6:01 AM 8:00 PM
Waning Gibbous, 80% visible
Pressure 29.94 in
Visibility 4.0 miles
Clouds Clear
Heat Index 72 °F
Dew Point 75.0 °F
Humidity 100%
Rainfall in
Snow Depth Not available.
UV 0 out of 12
Pollen 8.00 out of 12
Air Quality Not available.
Flu Activity Not available.
METAR KM30 040735Z AUTO 00000KT 4SM BR CLR 23/23 A2994 RMK AO2 T02320232

More Conditions Fewer Conditions

Pressure 29.94 in
Visibility 4.0 miles
Clouds Clear
Heat Index 72 °F
Dew Point 75.0 °F
Humidity 100%
Rainfall in
Snow Depth Not available.
UV 0 out of 12
Pollen 8.00 out of 12
Air Quality Not available.
Flu Activity Not available.
METAR KM30 040735Z AUTO 00000KT 4SM BR CLR 23/23 A2994 RMK AO2 T02320232

More Conditions Fewer Conditions

10-Day Weather Forecast

×

Almanac

Astronomy

Aug. 04, 2015 Rise Set
Actual Time
Civil Twilight
Nautical Twilight
Astronomical Twilight
Moon
Length of Visible Light
Length of Day
Tomorrow will be .
, % of the Moon is Illuminated

Today's Extremes

State Highs State Lows

Community

WunderPhotos

Upload Photos

1,843,877 photos uploaded!

WunderBlogs® & News

Nearby

Air Quality

  Air Quality AQ Index Pollutant
Not available.

Snow Depth

Station Depth Elevation

Earthquake Activity

City Distance Mag. Time & Date
Minimum magnitude displayed is 2.5.

Coastal Water Temperatures

Place Temperature

Stations

Nearby Weather Stations

Station Location Temp. Windchill Dew Point Humidity Wind Precip. Elev Updated Type